Flight Track Log - Related Links

Times and Time Zones

All times are in EDT time to prevent confusion due to time zone crossing. See the AAL1144 flight status page for this flight to view local times or setup timezone preferences in your user account.

Time Position Orientation Groundspeed Altitude Reporting Facility
EDT Latitude Longitude Course Direction KTS MPH feet Rate Location/Type
Thu 08:13:03 PM 33.6500 -117.8833 83° East 148 170 1,400  Level Southern California TRACON
Thu 08:14:03 PM 33.6000 -117.9000 196° South 213 245 2,900 2,094 Climbing Southern California TRACON
Thu 08:14:49 PM 33.5522 -117.8861 166° South 240 276 5,100 2,944 Climbing Los Angeles Center
Thu 08:15:00 PM 33.5124 -117.6072 54° Northeast  Level FlightAware Approximate
Thu 08:15:51 PM 33.4981 -117.8367 143° Southeast 252 290 8,200  Level Los Angeles Center
Thu 08:16:00 PM 33.5690 -117.4595 68° East  Level FlightAware Approximate
Thu 08:16:53 PM 33.4750 -117.7486 107° East 273 314 10,900  Level Los Angeles Center
Thu 08:17:00 PM 33.5833 -117.3001 90° East  Level FlightAware Approximate
Thu 08:17:56 PM 33.5106 -117.6331 70° East 307 353 13,300  Level Los Angeles Center
Thu 08:18:00 PM 33.5879 -117.1376 83° East  Level FlightAware Approximate
Thu 08:18:58 PM 33.5611 -117.5294 60° Northeast 344 396 15,200  Level Los Angeles Center
Thu 08:20:00 PM 33.5875 -117.4014 76° East 404 465 17,600 2,177 Climbing Los Angeles Center
Thu 08:21:02 PM 33.5914 -117.2644 88° East 411 473 19,700 1,839 Climbing Los Angeles Center
Thu 08:22:04 PM 33.5969 -117.1169 87° East 439 505 21,400 1,790 Climbing Los Angeles Center
Thu 08:23:06 PM 33.6025 -116.9644 87° East 457 526 23,400 1,887 Climbing Los Angeles Center
Thu 08:24:08 PM 33.6086 -116.7864 88° East 470 541 25,300 1,694 Climbing Los Angeles Center
Thu 08:25:10 PM 33.6150 -116.6253 87° East 481 554 26,900 1,355 Climbing Los Angeles Center
Thu 08:26:12 PM 33.6500 -116.4639 75° East 495 570 28,100 1,113 Climbing Los Angeles Center
Thu 08:27:14 PM 33.6933 -116.3017 72° East 505 581 29,200 1,016 Climbing Los Angeles Center
Thu 08:28:16 PM 33.7281 -116.1675 73° East 519 597 30,200 1,584 Climbing Los Angeles Center
Thu 08:29:19 PM 33.7869 -115.9356 73° East 516 594 32,500 1,776 Climbing Los Angeles Center
Thu 08:30:21 PM 33.8283 -115.7733 73° East 509 586 33,900 1,113 Climbing Los Angeles Center
Thu 08:31:23 PM 33.8700 -115.6083 73° East 515 593 34,800 1,065 Climbing Los Angeles Center
Thu 08:32:25 PM 33.9125 -115.4447 73° East 514 592 36,100 926 Climbing Los Angeles Center
Thu 08:33:39 PM 33.9522 -115.2839 73° East 503 579 36,900 353 Climbing Los Angeles Center
Thu 08:34:41 PM 34.0092 -115.0583 73° East 502 578 36,900  Level Los Angeles Center
Thu 08:35:44 PM 34.0481 -114.8972 74° East 503 579 36,900 48 Level Los Angeles Center
Thu 08:36:46 PM 34.0861 -114.7372 74° East 497 572 37,000  Climbing Los Angeles Center
Thu 08:37:48 PM 34.1308 -114.5797 71° East 498 573 36,900 -48 Descending Los Angeles Center
Thu 08:38:50 PM 34.1758 -114.4211 71° East 500 575 36,900 51 Level Los Angeles Center
Thu 08:39:45 PM 34.2161 -114.2756 71° East 501 577 37,000 51 Climbing Albuquerque Center
Thu 08:40:47 PM 34.2606 -114.1142 72° East 503 579 37,000  Level Albuquerque Center
Thu 08:41:48 PM 34.3144 -113.9206 71° East 506 582 37,000  Level Albuquerque Center
Thu 08:42:50 PM 34.3594 -113.7569 72° East 508 585 37,000  Level Albuquerque Center
Thu 08:43:52 PM 34.4033 -113.5964 72° East 510 587 37,000  Level Albuquerque Center
Thu 08:44:53 PM 34.4456 -113.4453 71° East 511 588 37,000  Level Albuquerque Center
Thu 08:45:55 PM 34.4897 -113.2803 72° East 515 593 37,000  Level Albuquerque Center
Thu 08:46:57 PM 34.5411 -113.0844 72° East 515 593 37,000  Level Albuquerque Center
Thu 08:47:59 PM 34.5861 -112.9225 71° East 512 589 37,000  Level Albuquerque Center
Thu 08:49:00 PM 34.6292 -112.7597 72° East 512 589 37,000  Level Albuquerque Center
Thu 08:50:02 PM 34.6717 -112.5975 72° East 511 588 37,000  Level Albuquerque Center
Thu 08:51:04 PM 34.7131 -112.4358 73° East 509 586 37,000  Level Albuquerque Center
Thu 08:52:05 PM 34.7575 -112.2386 75° East 509 586 37,000  Level Albuquerque Center
Thu 08:53:07 PM 34.7942 -112.0742 75° East 509 586 37,000  Level Albuquerque Center
Thu 08:54:09 PM 34.8314 -111.9094 75° East 510 587 37,000  Level Albuquerque Center
Thu 08:55:10 PM 34.8694 -111.7444 74° East 511 588 37,000  Level Albuquerque Center
Thu 08:56:12 PM 34.9078 -111.5769 74° East 511 588 37,000  Level Albuquerque Center
Thu 08:57:14 PM 34.9447 -111.4078 75° East 514 592 37,000  Level Albuquerque Center
Thu 08:58:15 PM 34.9814 -111.2386 75° East 515 593 37,000  Level Albuquerque Center
Thu 08:59:17 PM 35.0256 -111.0381 75° East 512 589 37,000  Level Albuquerque Center
Thu 09:00:20 PM 35.0608 -110.8683 76° East 515 593 37,000  Level Albuquerque Center
Thu 09:01:22 PM 35.1031 -110.6828 74° East 512 589 37,000  Level Albuquerque Center
Thu 09:02:23 PM 35.1364 -110.5217 76° East 511 588 37,000  Level Albuquerque Center
Thu 09:03:25 PM 35.1708 -110.3594 75° East 514 592 37,000  Level Albuquerque Center
Thu 09:04:27 PM 35.2108 -110.1708 75° East 514 592 37,000  Level Albuquerque Center
Thu 09:05:28 PM 35.2453 -110.0094 75° East 514 592 37,000  Level Albuquerque Center
Thu 09:06:30 PM 35.2847 -109.8194 76° East 516 594 37,000  Level Albuquerque Center
Thu 09:07:32 PM 35.3183 -109.6564 76° East 518 596 37,000  Level Albuquerque Center
Thu 09:08:33 PM 35.3569 -109.4658 76° East 517 595 37,000  Level Albuquerque Center
Thu 09:09:35 PM 35.3900 -109.3014 76° East 519 597 37,000  Level Albuquerque Center
Thu 09:10:36 PM 35.4236 -109.1372 76° East 521 600 37,000  Level Albuquerque Center
Thu 09:11:38 PM 35.4611 -108.9469 76° East 519 597 37,000  Level Albuquerque Center
Thu 09:12:40 PM 35.4992 -108.7847 74° East 519 597 37,000  Level Albuquerque Center
Thu 09:13:41 PM 35.5511 -108.5969 71° East 523 602 37,000  Level Albuquerque Center
Thu 09:14:43 PM 35.5956 -108.4353 71° East 524 603 37,000  Level Albuquerque Center
Thu 09:15:44 PM 35.6464 -108.2478 72° East 522 601 37,000  Level Albuquerque Center
Thu 09:16:46 PM 35.6889 -108.0872 72° East 520 598 37,000  Level Albuquerque Center
Thu 09:17:48 PM 35.7381 -107.9000 72° East 517 595 37,000  Level Albuquerque Center
Thu 09:18:49 PM 35.7811 -107.7403 72° East 516 594 37,000  Level Albuquerque Center
Thu 09:19:51 PM 35.8286 -107.5542 72° East 514 592 37,000  Level Albuquerque Center
Thu 09:20:52 PM 35.8711 -107.3933 72° East 514 592 37,000  Level Albuquerque Center
Thu 09:21:54 PM 35.9125 -107.2319 72° East 517 595 37,000  Level Albuquerque Center
Thu 09:22:56 PM 35.9553 -107.0664 72° East 520 598 37,000  Level Albuquerque Center
Thu 09:23:57 PM 35.9989 -106.8944 73° East 522 601 37,000  Level Albuquerque Center
Thu 09:24:59 PM 36.0511 -106.6875 73° East 524 603 37,000  Level Albuquerque Center
Thu 09:26:00 PM 36.0950 -106.5164 72° East 521 600 37,000  Level Albuquerque Center
Thu 09:27:02 PM 36.1383 -106.3450 73° East 521 600 37,000  Level Albuquerque Center
Thu 09:28:03 PM 36.1819 -106.1672 73° East 523 602 37,000  Level Albuquerque Center
Thu 09:29:05 PM 36.2239 -106.0019 72° East 520 598 37,000  Level Albuquerque Center
Thu 09:30:07 PM 36.2658 -105.8261 73° East 527 606 37,000  Level Albuquerque Center
Thu 09:31:08 PM 36.3061 -105.6539 74° East 524 603 37,000  Level Albuquerque Center
Thu 09:32:10 PM 36.3539 -105.4572 73° East 522 601 37,000  Level Albuquerque Center
Thu 09:33:11 PM 36.3950 -105.2822 74° East 523 602 37,000  Level Albuquerque Center
Thu 09:34:13 PM 36.4353 -105.1089 74° East 521 600 37,000  Level Albuquerque Center
Thu 09:35:14 PM 36.4769 -104.9350 73° East 519 597 37,000  Level Albuquerque Center
Thu 09:36:16 PM 36.5303 -104.7636 69° East 524 603 37,000  Level Albuquerque Center
Thu 09:37:17 PM 36.5917 -104.6006 65° Northeast 517 595 37,000  Level Albuquerque Center
Thu 09:38:19 PM 36.6508 -104.4347 66° East 517 595 37,000  Level Albuquerque Center
Thu 09:39:20 PM 36.7161 -104.2553 66° East 518 596 37,000  Level Albuquerque Center
Thu 09:40:22 PM 36.7728 -104.1014 65° Northeast 516 594 37,000  Level Albuquerque Center
Thu 09:41:23 PM 36.8378 -103.9175 66° East 518 596 37,000  Level Albuquerque Center
Thu 09:42:25 PM 36.8933 -103.7628 66° East 516 594 37,000  Level Albuquerque Center
Thu 09:43:26 PM 36.9586 -103.5783 66° East 520 598 37,000  Level Albuquerque Center
Thu 09:44:28 PM 37.0156 -103.4175 66° East 527 606 37,000  Level Albuquerque Center
Thu 09:45:29 PM 37.0719 -103.2572 66° East 529 609 37,000  Level Albuquerque Center
Thu 09:46:30 PM 37.1375 -103.0694 66° East 528 608 37,000  Level Albuquerque Center
Thu 09:47:32 PM 37.1933 -102.9081 66° East 529 609 37,000  Level Albuquerque Center
Thu 09:48:33 PM 37.2581 -102.7231 66° East 521 600 37,000  Level Albuquerque Center
Thu 09:49:35 PM 37.3108 -102.5658 67° East 514 592 37,000  Level Albuquerque Center
Thu 09:50:36 PM 37.3658 -102.4050 67° East 519 597 37,000  Level Albuquerque Center
Thu 09:51:37 PM 37.4294 -102.2150 67° East 520 598 37,000  Level Albuquerque Center
Thu 09:52:39 PM 37.4825 -102.0547 67° East 519 597 37,000  Level Albuquerque Center
Thu 09:53:40 PM 37.5458 -101.8664 67° East 522 601 37,000  Level Albuquerque Center
Thu 09:53:56 PM 37.5542 -101.8392 69° East 522 601 37,000  Level Kansas City Center
Thu 09:54:57 PM 37.6086 -101.6761 67° East 525 604 37,000  Level Kansas City Center
Thu 09:55:58 PM 37.6717 -101.4856 67° East 526 605 37,000  Level Kansas City Center
Thu 09:57:00 PM 37.7253 -101.3217 67° East 527 606 37,000  Level Kansas City Center
Thu 09:58:00 PM 37.7892 -101.1281 67° East 529 609 37,000  Level Kansas City Center
Thu 09:59:04 PM 37.8447 -100.9578 68° East 535 616 37,000  Level Kansas City Center
Thu 10:00:05 PM 37.9006 -100.7864 68° East 541 623 37,000  Level Kansas City Center
Thu 10:01:05 PM 37.9647 -100.5894 67° East 540 621 37,000  Level Kansas City Center
Thu 10:02:09 PM 38.0219 -100.4233 66° East 536 617 37,000  Level Kansas City Center
Thu 10:03:09 PM 38.0783 -100.2553 67° East 538 619 37,000  Level Kansas City Center
Thu 10:04:11 PM 38.1419 -100.0597 67° East 537 618 37,000  Level Kansas City Center
Thu 10:05:13 PM 38.1992 -99.8911 67° East 539 620 37,000  Level Kansas City Center
Thu 10:06:14 PM 38.2644 -99.6950 67° East 540 621 37,000  Level Kansas City Center
Thu 10:07:14 PM 38.3197 -99.5247 67° East 543 625 37,000  Level Kansas City Center
Thu 10:08:18 PM 38.3772 -99.3503 67° East 543 625 37,000  Level Kansas City Center
Thu 10:09:19 PM 38.4347 -99.1719 68° East 544 626 37,000  Level Kansas City Center
Thu 10:10:20 PM 38.4925 -98.9947 67° East 541 623 37,000  Level Kansas City Center
Thu 10:11:21 PM 38.5506 -98.8144 68° East 545 627 37,000  Level Kansas City Center
Thu 10:12:22 PM 38.6089 -98.6347 67° East 544 626 37,000  Level Kansas City Center
Thu 10:13:23 PM 38.6658 -98.4558 68° East 542 624 37,000  Level Kansas City Center
Thu 10:14:26 PM 38.7225 -98.2764 68° East 542 624 37,000  Level Kansas City Center
Thu 10:15:27 PM 38.7894 -98.0600 68° East 542 624 37,000  Level Kansas City Center
Thu 10:16:28 PM 38.8461 -97.8803 68° East 541 623 37,000  Level Kansas City Center
Thu 10:17:31 PM 38.9011 -97.7022 68° East 546 628 37,000  Level Kansas City Center
Thu 10:18:31 PM 38.9561 -97.5081 70° East 547 629 37,000  Level Kansas City Center
Thu 10:19:32 PM 39.0056 -97.3197 71° East 549 632 37,000  Level Kansas City Center
Thu 10:20:36 PM 39.0528 -97.1414 71° East 550 633 37,000  Level Kansas City Center
Thu 10:21:37 PM 39.1067 -96.9336 71° East 549 632 37,000  Level Kansas City Center
Thu 10:22:38 PM 39.1536 -96.7544 71° East 550 633 37,000  Level Kansas City Center
Thu 10:23:38 PM 39.1992 -96.5767 72° East 547 629 37,000  Level Kansas City Center
Thu 10:24:42 PM 39.2506 -96.3672 72° East 547 629 37,000  Level Kansas City Center
Thu 10:25:42 PM 39.3017 -96.1700 71° East 548 631 37,000  Level Kansas City Center
Thu 10:26:43 PM 39.3486 -95.9778 72° East 548 631 37,000  Level Kansas City Center
Thu 10:27:44 PM 39.3931 -95.7969 72° East 550 633 37,000  Level Kansas City Center
Thu 10:28:45 PM 39.4386 -95.6161 72° East 550 633 37,000  Level Kansas City Center
Thu 10:29:49 PM 39.4908 -95.4011 72° East 547 629 37,000  Level Kansas City Center
Thu 10:30:50 PM 39.5364 -95.2128 73° East 548 631 37,000  Level Kansas City Center
Thu 10:31:50 PM 39.5786 -95.0408 72° East 546 628 37,000  Level Kansas City Center
Thu 10:32:51 PM 39.6283 -94.8286 73° East 549 632 37,000  Level Kansas City Center
Thu 10:33:54 PM 39.6722 -94.6481 72° East 547 629 37,000  Level Kansas City Center
Thu 10:34:55 PM 39.7217 -94.4381 73° East 544 626 37,000  Level Kansas City Center
Thu 10:35:56 PM 39.7631 -94.2569 73° East 545 627 37,000  Level Kansas City Center
Thu 10:36:56 PM 39.8086 -94.0608 73° East 544 626 37,000  Level Kansas City Center
Thu 10:37:57 PM 39.8550 -93.8750 72° East 545 627 37,000  Level Kansas City Center
Thu 10:38:59 PM 39.9094 -93.6964 68° East 537 618 37,000  Level Kansas City Center
Thu 10:40:01 PM 39.9617 -93.5178 69° East 533 613 37,000  Level Kansas City Center
Thu 10:41:01 PM 40.0131 -93.3383 69° East 532 612 37,000  Level Kansas City Center
Thu 10:42:05 PM 40.0639 -93.1600 70° East 531 611 37,000  Level Kansas City Center
Thu 10:43:06 PM 40.1253 -92.9508 69° East 526 605 37,000  Level Kansas City Center
Thu 10:44:08 PM 40.1733 -92.7817 70° East 522 601 37,000  Level Kansas City Center
Thu 10:45:08 PM 40.2214 -92.6100 70° East 522 601 37,000  Level Kansas City Center
Thu 10:46:09 PM 40.2781 -92.4133 69° East 519 597 37,000  Level Kansas City Center
Thu 10:47:09 PM 40.3208 -92.2572 70° East 524 603 37,000  Level Kansas City Center
Thu 10:48:10 PM 40.3786 -92.0489 70° East 516 594 37,000  Level Kansas City Center
Thu 10:49:12 PM 40.4258 -91.8750 70° East 512 589 37,000  Level Kansas City Center
Thu 10:50:13 PM 40.4728 -91.7000 71° East 512 589 37,000 -919 Level Kansas City Center
Thu 10:51:16 PM 40.5203 -91.5244 70° East 514 592 35,100 -2,000 Descending Kansas City Center
Thu 10:52:13 PM 40.5717 -91.3464 69° East 523 602 33,000 -1,068 Descending Chicago Center
Thu 10:53:14 PM 40.6417 -91.1483 65° Northeast 540 621 33,000  Level Chicago Center
Thu 10:54:15 PM 40.7019 -90.9689 66° East 536 617 33,000  Level Chicago Center
Thu 10:55:16 PM 40.7636 -90.7881 66° East 538 619 33,000  Level Chicago Center
Thu 10:56:18 PM 40.8239 -90.6072 66° East 537 618 33,000  Level Chicago Center
Thu 10:57:19 PM 40.8833 -90.4300 66° East 526 605 33,000 -689 Level Chicago Center
Thu 10:58:20 PM 40.9428 -90.2569 65° Northeast 514 592 31,600 -1,820 Descending Chicago Center
Thu 10:59:21 PM 41.0003 -90.0814 66° East 512 589 29,300 -2,213 Descending Chicago Center
Thu 11:00:22 PM 41.0553 -89.9111 67° East 500 575 27,100 -2,016 Descending Chicago Center
Thu 11:01:23 PM 41.1089 -89.7494 66° East 480 552 25,200 -1,659 Descending Chicago Center
Thu 11:02:25 PM 41.1592 -89.5925 67° East 461 531 23,700 -1,951 Descending Chicago Center
Thu 11:03:26 PM 41.2178 -89.4464 62° Northeast 448 516 21,200 -2,361 Descending Chicago Center
Thu 11:04:27 PM 41.2756 -89.3056 61° Northeast 435 501 18,900 -1,967 Descending Chicago Center
Thu 11:05:28 PM 41.3319 -89.1611 62° Northeast 414 476 17,200 -1,820 Descending Chicago Center
Thu 11:06:29 PM 41.3839 -89.0319 62° Northeast 401 461 15,200 -1,869 Descending Chicago Center
Thu 11:07:30 PM 41.4333 -88.9058 62° Northeast 385 443 13,400 -1,770 Descending Chicago Center
Thu 11:08:31 PM 41.4822 -88.7853 62° Northeast 372 428 11,600 -1,122 Descending Chicago Center
Thu 11:09:33 PM 41.5281 -88.6686 62° Northeast 360 414 11,100 -244 Descending Chicago Center
Thu 11:10:34 PM 41.5739 -88.5514 62° Northeast 356 410 11,100  Level Chicago Center
Thu 11:11:35 PM 41.6358 -88.4181 58° Northeast 352 405 11,100  Level Chicago Center
Thu 11:12:36 PM 41.6964 -88.3147 52° Northeast 352 405 11,100  Level Chicago Center
Thu 11:13:37 PM 41.7575 -88.2125 51° Northeast 351 404 11,100 -197 Level Chicago Center
Thu 11:14:38 PM 41.8153 -88.1111 53° Northeast 344 396 10,700 -585 Descending Chicago Center
Thu 11:15:40 PM 41.8667 -88.0189 53° Northeast 312 359 9,900 -1,086 Descending Chicago Center
Thu 11:16:23 PM 41.8833 -87.9333 75° East 306 352 8,800 -1,041 Descending Chicago TRACON
Thu 11:17:18 PM 41.8833 -87.8500 90° East 282 325 8,200 -1,043 Descending Chicago TRACON
Thu 11:18:18 PM 41.8833 -87.7500 90° East 249 287 6,800 -1,600 Descending Chicago TRACON
Thu 11:19:18 PM 41.9000 -87.6667 75° East 247 284 5,000 -1,800 Descending Chicago TRACON

Login

Don't have an account? Register now (free) for customized features, flight alerts, and more!